createdAt,value
2018-05-08T00:01:51.086Z,60.10
2018-05-08T00:04:19.344Z,60.00
2018-05-08T00:06:47.666Z,59.70
2018-05-08T00:09:15.862Z,59.80
2018-05-08T00:11:44.893Z,59.70
2018-05-08T00:14:13.165Z,60.00
2018-05-08T00:16:41.406Z,60.00
2018-05-08T00:19:09.631Z,59.90
2018-05-08T00:21:37.932Z,60.00
2018-05-08T00:24:06.952Z,60.00
2018-05-08T00:26:35.233Z,59.90
2018-05-08T00:29:03.471Z,60.00
2018-05-08T00:31:32.083Z,60.60
2018-05-08T00:34:00.295Z,60.70
2018-05-08T00:36:29.217Z,60.90
2018-05-08T00:38:57.486Z,61.00
2018-05-08T00:41:25.703Z,60.90
2018-05-08T00:43:54.805Z,60.60
2018-05-08T00:46:23.119Z,60.60
2018-05-08T00:48:51.340Z,60.90
2018-05-08T00:51:19.585Z,61.30
2018-05-08T00:53:47.878Z,61.30
2018-05-08T00:56:16.066Z,61.10
2018-05-08T00:58:45.056Z,60.90
2018-05-08T01:01:14.060Z,60.70
2018-05-08T01:03:43.070Z,60.70
2018-05-08T01:06:11.308Z,60.60
2018-05-08T01:08:39.562Z,60.60
2018-05-08T01:11:07.813Z,60.70
2018-05-08T01:13:36.066Z,60.70
2018-05-08T01:16:04.276Z,60.60
2018-05-08T01:18:32.533Z,60.70
2018-05-08T01:21:00.759Z,60.60
2018-05-08T01:23:28.987Z,60.60
2018-05-08T01:25:57.215Z,60.50
2018-05-08T01:28:25.427Z,60.40
2018-05-08T01:30:53.659Z,60.50
2018-05-08T01:33:21.906Z,60.40
2018-05-08T01:35:50.152Z,60.30
2018-05-08T01:38:18.427Z,60.30
2018-05-08T01:40:46.700Z,60.30
2018-05-08T01:43:15.077Z,60.20
2018-05-08T01:45:43.275Z,60.40
2018-05-08T01:48:11.572Z,60.40
2018-05-08T01:50:39.777Z,60.30
2018-05-08T01:53:08.023Z,60.20
2018-05-08T01:55:36.258Z,60.00
2018-05-08T01:58:04.492Z,60.20
2018-05-08T02:00:32.816Z,60.40
2018-05-08T02:03:01.147Z,60.40
2018-05-08T02:05:30.121Z,60.30
2018-05-08T02:07:58.345Z,60.20
2018-05-08T02:10:27.348Z,60.20
2018-05-08T02:12:55.597Z,60.20
2018-05-08T02:15:24.590Z,60.20
2018-05-08T02:17:52.839Z,60.90
2018-05-08T02:20:21.158Z,60.00
2018-05-08T02:22:49.326Z,60.00
2018-05-08T02:25:17.574Z,60.00
2018-05-08T02:27:46.020Z,60.00
2018-05-08T02:30:14.294Z,60.00
2018-05-08T02:32:42.504Z,60.00
2018-05-08T02:35:10.737Z,60.00
2018-05-08T02:37:39.119Z,60.00
2018-05-08T02:40:07.350Z,60.00
2018-05-08T02:42:35.581Z,59.90
2018-05-08T02:45:03.821Z,59.80
2018-05-08T02:47:32.842Z,59.70
2018-05-08T02:50:01.050Z,59.70
2018-05-08T02:52:29.392Z,59.70
2018-05-08T02:54:57.523Z,59.70
2018-05-08T02:57:27.297Z,59.80
2018-05-08T02:59:55.661Z,59.80
2018-05-08T03:02:23.999Z,59.80
2018-05-08T03:04:52.230Z,59.80
2018-05-08T03:07:20.501Z,59.70
2018-05-08T03:09:48.733Z,59.80
2018-05-08T03:12:16.978Z,59.80
2018-05-08T03:14:45.203Z,59.90
2018-05-08T03:17:14.202Z,60.20
2018-05-08T03:19:43.283Z,60.10
2018-05-08T03:22:11.709Z,60.00
2018-05-08T03:24:39.918Z,60.00
2018-05-08T03:27:08.139Z,59.90
2018-05-08T03:29:36.397Z,59.80
2018-05-08T03:32:04.613Z,59.80
2018-05-08T03:34:32.851Z,59.80
2018-05-08T03:37:01.826Z,59.80
2018-05-08T03:39:30.077Z,59.80
2018-05-08T03:41:58.295Z,60.00
2018-05-08T03:44:27.331Z,60.00
2018-05-08T03:46:55.548Z,60.00
2018-05-08T03:49:23.837Z,60.10
2018-05-08T03:51:52.850Z,60.40
2018-05-08T03:54:21.057Z,60.30
2018-05-08T03:56:49.300Z,60.30
2018-05-08T03:59:17.520Z,60.40
2018-05-08T04:01:57.628Z,60.40
2018-05-08T04:04:37.775Z,60.40
2018-05-08T04:07:18.596Z,60.50
2018-05-08T04:09:46.809Z,60.50
2018-05-08T04:12:15.822Z,60.40
2018-05-08T04:14:44.055Z,60.40
2018-05-08T04:17:12.293Z,60.30
2018-05-08T04:19:40.509Z,60.30
2018-05-08T04:22:08.833Z,60.30
2018-05-08T04:24:37.232Z,60.20
2018-05-08T04:27:05.601Z,60.20
2018-05-08T04:29:33.827Z,60.10
2018-05-08T04:32:02.072Z,61.00
2018-05-08T04:34:30.311Z,60.40
2018-05-08T04:36:59.293Z,60.40
2018-05-08T04:39:28.380Z,60.50
2018-05-08T04:41:57.386Z,60.50
2018-05-08T04:44:26.398Z,60.50
2018-05-08T04:46:55.571Z,60.40
2018-05-08T04:49:24.563Z,60.90
2018-05-08T04:51:53.581Z,60.70
2018-05-08T04:54:21.859Z,60.60
2018-05-08T04:56:50.835Z,61.20
2018-05-08T04:59:19.885Z,60.60
2018-05-08T05:01:48.133Z,60.50
2018-05-08T05:04:16.386Z,60.90
2018-05-08T05:06:45.367Z,61.10
2018-05-08T05:09:13.772Z,61.00
2018-05-08T05:11:42.020Z,61.40
2018-05-08T05:14:11.023Z,61.30
2018-05-08T05:16:39.332Z,61.30
2018-05-08T05:19:07.485Z,61.10
2018-05-08T05:21:36.559Z,61.30
2018-05-08T05:24:04.768Z,61.20
2018-05-08T05:26:33.041Z,61.30
2018-05-08T05:29:01.274Z,61.60
2018-05-08T05:31:29.529Z,61.60
2018-05-08T05:33:57.757Z,61.30
2018-05-08T05:36:26.741Z,61.40
2018-05-08T05:38:54.986Z,61.40
2018-05-08T05:41:23.209Z,61.30
2018-05-08T05:43:51.444Z,61.30
2018-05-08T05:46:19.655Z,61.20
2018-05-08T05:48:47.936Z,61.40
2018-05-08T05:51:16.211Z,61.60
2018-05-08T05:53:45.217Z,61.60
2018-05-08T05:56:13.456Z,61.50
2018-05-08T05:58:42.484Z,61.70
2018-05-08T06:01:10.691Z,61.10
2018-05-08T06:03:39.045Z,61.30
2018-05-08T06:06:07.326Z,61.00
2018-05-08T06:08:35.611Z,61.30
2018-05-08T06:11:03.846Z,61.30
2018-05-08T06:13:32.830Z,61.50
2018-05-08T06:16:01.094Z,61.40
2018-05-08T06:18:29.320Z,61.60
2018-05-08T06:20:58.122Z,61.30
2018-05-08T06:23:26.366Z,61.30
2018-05-08T06:25:55.502Z,61.20
2018-05-08T06:28:23.753Z,61.20
2018-05-08T06:30:51.992Z,61.60
2018-05-08T06:33:20.422Z,61.70
2018-05-08T06:35:48.668Z,61.30
2018-05-08T06:38:17.710Z,61.50
2018-05-08T06:40:45.966Z,61.40
2018-05-08T06:43:14.217Z,61.30
2018-05-08T06:45:43.343Z,61.10
2018-05-08T06:48:11.605Z,61.10
2018-05-08T06:50:39.833Z,60.90
2018-05-08T06:53:08.076Z,60.70
2018-05-08T06:55:36.474Z,60.60
2018-05-08T06:58:04.836Z,60.60
2018-05-08T07:00:33.074Z,60.90
2018-05-08T07:03:02.062Z,61.00
2018-05-08T07:05:31.088Z,60.80
2018-05-08T07:07:59.379Z,60.80
2018-05-08T07:10:27.709Z,61.20
2018-05-08T07:12:56.743Z,60.70
2018-05-08T07:15:24.943Z,60.60
2018-05-08T07:17:53.361Z,60.60
2018-05-08T07:20:21.581Z,60.90
2018-05-08T07:22:49.899Z,60.90
2018-05-08T07:25:18.132Z,61.00
2018-05-08T07:27:46.388Z,61.10
2018-05-08T07:30:15.481Z,60.70
2018-05-08T07:32:43.715Z,61.40
2018-05-08T07:35:11.926Z,61.30
2018-05-08T07:37:40.170Z,60.20
2018-05-08T07:40:08.424Z,60.00
2018-05-08T07:42:36.669Z,60.00
2018-05-08T07:45:04.941Z,59.70
2018-05-08T07:47:33.232Z,59.70
2018-05-08T07:50:01.492Z,59.80
2018-05-08T07:52:29.765Z,59.70
2018-05-08T07:54:58.874Z,58.80
2018-05-08T07:57:27.104Z,58.80
2018-05-08T07:59:56.853Z,59.60
2018-05-08T08:02:25.065Z,59.60
2018-05-08T08:04:53.344Z,59.00
2018-05-08T08:07:21.556Z,58.70
2018-05-08T08:09:49.791Z,58.70
2018-05-08T08:12:18.100Z,58.60
2018-05-08T08:14:46.311Z,58.50
2018-05-08T08:17:14.541Z,58.40
2018-05-08T08:19:42.763Z,58.50
2018-05-08T08:22:11.045Z,58.40
2018-05-08T08:24:39.285Z,58.50
2018-05-08T08:27:08.272Z,58.60
2018-05-08T08:29:42.448Z,58.10
2018-05-08T08:32:10.596Z,57.60
2018-05-08T08:34:38.859Z,57.80
2018-05-08T08:37:08.047Z,57.70
2018-05-08T08:39:36.227Z,57.60
2018-05-08T08:42:04.468Z,57.20
2018-05-08T08:44:32.741Z,56.50
2018-05-08T08:47:01.357Z,56.20
2018-05-08T08:49:29.585Z,55.90
2018-05-08T08:51:57.852Z,54.80
2018-05-08T08:54:26.105Z,54.90
2018-05-08T08:56:54.396Z,54.40
2018-05-08T08:59:22.634Z,54.80
2018-05-08T09:01:50.886Z,54.60
2018-05-08T09:04:19.107Z,54.60
2018-05-08T09:06:48.397Z,54.40
2018-05-08T09:09:17.408Z,52.30
2018-05-08T09:11:45.703Z,52.20
2018-05-08T09:14:13.937Z,50.10
2018-05-08T09:16:42.173Z,49.30
2018-05-08T09:19:10.440Z,50.20
2018-05-08T09:21:38.675Z,50.80
2018-05-08T09:24:07.729Z,50.20
2018-05-08T09:26:36.164Z,50.20
2018-05-08T09:29:04.478Z,49.40
2018-05-08T09:31:32.729Z,49.10
2018-05-08T09:34:01.862Z,49.60
2018-05-08T09:36:30.170Z,49.30
2018-05-08T09:38:59.171Z,47.20
2018-05-08T09:41:27.409Z,47.20
2018-05-08T09:43:55.757Z,47.50
2018-05-08T09:46:23.980Z,47.70
2018-05-08T09:48:52.299Z,46.60
2018-05-08T09:51:20.513Z,45.60
2018-05-08T09:53:48.745Z,46.40
2018-05-08T09:56:17.040Z,46.70
2018-05-08T09:58:45.269Z,45.60
2018-05-08T10:01:13.510Z,46.10
2018-05-08T10:03:41.777Z,46.20
2018-05-08T10:06:10.068Z,45.70
2018-05-08T10:08:38.288Z,45.00
2018-05-08T10:11:06.520Z,44.60
2018-05-08T10:13:34.868Z,44.20
2018-05-08T10:16:03.155Z,43.20
2018-05-08T10:18:31.378Z,42.80
2018-05-08T10:20:59.597Z,42.20
2018-05-08T10:23:27.881Z,42.60
2018-05-08T10:25:56.103Z,43.10
2018-05-08T10:28:24.439Z,43.00
2018-05-08T10:30:52.670Z,42.90
2018-05-08T10:33:20.912Z,42.90
2018-05-08T10:35:49.241Z,43.30
2018-05-08T10:38:17.470Z,43.20
2018-05-08T10:40:45.782Z,42.90
2018-05-08T10:43:14.907Z,43.20
2018-05-08T10:45:43.142Z,43.10
2018-05-08T10:48:12.195Z,43.40
2018-05-08T10:50:40.446Z,42.80
2018-05-08T10:53:08.681Z,43.20
2018-05-08T10:55:36.911Z,43.40
2018-05-08T10:58:05.157Z,43.20
2018-05-08T11:00:34.160Z,42.70
2018-05-08T11:03:03.229Z,43.00
2018-05-08T11:05:31.469Z,43.00
2018-05-08T11:07:59.718Z,43.20
2018-05-08T11:10:27.973Z,42.60
2018-05-08T11:12:57.033Z,41.40
2018-05-08T11:15:25.273Z,41.40
2018-05-08T11:17:53.533Z,41.70
2018-05-08T11:20:21.794Z,41.90
2018-05-08T11:22:49.992Z,41.70
2018-05-08T11:25:18.289Z,41.80
2018-05-08T11:27:46.524Z,41.20
2018-05-08T11:30:15.528Z,41.40
2018-05-08T11:32:43.743Z,40.60
2018-05-08T11:35:11.982Z,40.80
2018-05-08T11:37:40.331Z,40.50
2018-05-08T11:40:08.731Z,40.50
2018-05-08T11:42:36.970Z,40.70
2018-05-08T11:45:05.245Z,41.10
2018-05-08T11:47:33.577Z,40.60
2018-05-08T11:50:01.966Z,40.90
2018-05-08T11:52:30.198Z,41.20
2018-05-08T11:54:58.435Z,40.80
2018-05-08T11:57:26.699Z,40.40
2018-05-08T11:59:54.951Z,41.10
2018-05-08T12:02:24.064Z,42.70
2018-05-08T12:04:52.325Z,42.60
2018-05-08T12:07:21.342Z,40.90
2018-05-08T12:09:49.572Z,40.80
2018-05-08T12:12:17.828Z,41.00
2018-05-08T12:14:46.101Z,41.90
2018-05-08T12:17:14.293Z,41.50
2018-05-08T12:19:42.529Z,41.70
2018-05-08T12:22:10.761Z,41.70
2018-05-08T12:24:39.041Z,41.00
2018-05-08T12:27:08.264Z,41.10
2018-05-08T12:29:36.504Z,41.10
2018-05-08T12:32:04.724Z,41.50
2018-05-08T12:34:32.973Z,41.70
2018-05-08T12:37:01.234Z,41.30
2018-05-08T12:39:30.243Z,42.00
2018-05-08T12:41:59.329Z,42.00
2018-05-08T12:44:27.520Z,42.00
2018-05-08T12:46:56.530Z,40.90
2018-05-08T12:49:24.866Z,40.90
2018-05-08T12:51:53.144Z,40.70
2018-05-08T12:54:21.382Z,41.60
2018-05-08T12:56:49.612Z,43.20
2018-05-08T12:59:18.714Z,41.00
2018-05-08T13:01:48.065Z,40.20
2018-05-08T13:04:16.280Z,40.20
2018-05-08T13:06:44.501Z,40.40
2018-05-08T13:09:12.749Z,39.80
2018-05-08T13:11:40.997Z,39.50
2018-05-08T13:14:09.233Z,40.00
2018-05-08T13:16:37.571Z,41.10
2018-05-08T13:19:05.762Z,40.90
2018-05-08T13:21:33.977Z,41.10
2018-05-08T13:24:02.230Z,41.00
2018-05-08T13:26:30.471Z,41.00
2018-05-08T13:28:59.528Z,39.90
2018-05-08T13:31:27.794Z,39.90
2018-05-08T13:33:56.071Z,39.70
2018-05-08T13:36:24.395Z,38.80
2018-05-08T13:38:52.664Z,38.40
2018-05-08T13:41:21.059Z,38.50
2018-05-08T13:43:49.287Z,38.80
2018-05-08T13:46:17.693Z,39.00
2018-05-08T13:48:45.977Z,39.20
2018-05-08T13:51:15.062Z,39.40
2018-05-08T13:53:43.283Z,39.40
2018-05-08T13:56:12.255Z,38.90
2018-05-08T13:58:40.715Z,38.80
2018-05-08T14:01:09.727Z,38.40
2018-05-08T14:03:38.723Z,38.40
2018-05-08T14:06:06.957Z,38.40
2018-05-08T14:08:35.192Z,38.70
2018-05-08T14:11:03.453Z,38.20
2018-05-08T14:13:31.773Z,38.10
2018-05-08T14:16:00.013Z,38.50
2018-05-08T14:18:28.992Z,38.10
2018-05-08T14:20:57.264Z,38.10
2018-05-08T14:23:25.664Z,38.10
2018-05-08T14:25:53.907Z,38.00
2018-05-08T14:28:22.178Z,38.40
2018-05-08T14:30:50.425Z,38.90
2018-05-08T14:33:18.663Z,39.20
2018-05-08T14:35:46.913Z,39.30
2018-05-08T14:38:15.238Z,39.20
2018-05-08T14:40:43.443Z,39.50
2018-05-08T14:43:11.676Z,39.10
2018-05-08T14:45:39.907Z,39.10
2018-05-08T14:48:08.135Z,39.20
2018-05-08T14:50:36.369Z,38.10
2018-05-08T14:53:04.688Z,38.80
2018-05-08T14:55:32.933Z,37.80
2018-05-08T14:58:01.974Z,37.60
2018-05-08T15:00:30.190Z,37.50
2018-05-08T15:02:58.421Z,37.00
2018-05-08T15:05:26.673Z,37.00
2018-05-08T15:07:55.889Z,36.80
2018-05-08T15:10:24.143Z,36.70
2018-05-08T15:12:52.385Z,36.10
2018-05-08T15:15:20.616Z,36.50
2018-05-08T15:17:48.858Z,36.70
2018-05-08T15:20:17.861Z,36.30
2018-05-08T15:22:46.887Z,36.40
2018-05-08T15:25:15.122Z,36.30
2018-05-08T15:27:44.113Z,36.10
2018-05-08T15:30:13.171Z,36.00
2018-05-08T15:32:41.400Z,35.90
2018-05-08T15:35:10.408Z,36.50
2018-05-08T15:37:38.708Z,36.50
2018-05-08T15:40:06.936Z,37.00
2018-05-08T15:42:35.918Z,36.40
2018-05-08T15:45:04.156Z,36.30
2018-05-08T15:47:32.561Z,35.70
2018-05-08T15:50:01.723Z,36.10
2018-05-08T15:52:29.956Z,36.20
2018-05-08T15:54:58.979Z,36.30
2018-05-08T15:57:28.262Z,35.80
2018-05-08T15:59:57.288Z,35.20
2018-05-08T16:02:25.548Z,35.20
2018-05-08T16:04:53.822Z,35.50
2018-05-08T16:07:22.070Z,35.60
2018-05-08T16:09:51.112Z,36.50
2018-05-08T16:12:19.382Z,35.70
2018-05-08T16:14:47.674Z,36.30
2018-05-08T16:17:15.902Z,36.50
2018-05-08T16:19:44.930Z,36.30
2018-05-08T16:22:13.271Z,36.30
2018-05-08T16:24:42.321Z,36.00
2018-05-08T16:27:10.539Z,36.00
2018-05-08T16:29:39.594Z,36.20
2018-05-08T16:32:08.027Z,36.20
2018-05-08T16:34:36.315Z,35.60
2018-05-08T16:37:04.550Z,35.00
2018-05-08T16:39:32.843Z,35.10
2018-05-08T16:42:01.102Z,35.00
2018-05-08T16:44:29.428Z,34.80
2018-05-08T16:46:57.763Z,35.20
2018-05-08T16:49:25.972Z,35.40
2018-05-08T16:51:54.208Z,35.10
2018-05-08T16:54:22.448Z,34.90
2018-05-08T16:56:50.714Z,35.10
2018-05-08T16:59:18.992Z,35.30
2018-05-08T17:01:47.207Z,34.90
2018-05-08T17:04:15.440Z,34.70
2018-05-08T17:06:43.679Z,34.50
2018-05-08T17:09:12.668Z,34.20
2018-05-08T17:11:41.657Z,34.60
2018-05-08T17:14:10.616Z,34.70
2018-05-08T17:16:38.809Z,34.60
2018-05-08T17:19:07.144Z,34.00
2018-05-08T17:21:35.360Z,33.40
2018-05-08T17:24:03.618Z,33.50
2018-05-08T17:26:31.845Z,33.90
2018-05-08T17:29:00.965Z,32.70
2018-05-08T17:31:29.207Z,32.70
2018-05-08T17:33:57.689Z,32.90
2018-05-08T17:36:25.878Z,32.60
2018-05-08T17:38:54.444Z,31.70
2018-05-08T17:41:22.688Z,31.90
2018-05-08T17:43:50.920Z,32.50
2018-05-08T17:46:19.930Z,33.60
2018-05-08T17:48:48.269Z,33.50
2018-05-08T17:51:16.475Z,33.80
2018-05-08T17:53:44.731Z,33.60
2018-05-08T17:56:13.033Z,33.30
2018-05-08T17:58:41.306Z,34.00
2018-05-08T18:01:09.551Z,33.50
2018-05-08T18:03:37.904Z,34.00
2018-05-08T18:06:06.256Z,34.60
2018-05-08T18:08:34.476Z,35.80
2018-05-08T18:11:02.729Z,35.60
2018-05-08T18:13:30.970Z,35.90
2018-05-08T18:15:59.189Z,36.20
2018-05-08T18:18:27.446Z,36.30
2018-05-08T18:20:55.672Z,37.30
2018-05-08T18:23:24.675Z,37.20
2018-05-08T18:25:52.934Z,37.20
2018-05-08T18:28:21.186Z,37.50
2018-05-08T18:30:49.426Z,37.80
2018-05-08T18:33:17.810Z,38.10
2018-05-08T18:35:46.036Z,38.40
2018-05-08T18:38:14.294Z,38.70
2018-05-08T18:40:42.541Z,38.80
2018-05-08T18:43:10.794Z,39.00
2018-05-08T18:45:39.098Z,39.20
2018-05-08T18:48:07.321Z,39.30
2018-05-08T18:50:36.350Z,39.60
2018-05-08T18:53:05.335Z,39.60
2018-05-08T18:55:34.373Z,39.90
2018-05-08T18:58:02.623Z,39.90
2018-05-08T19:00:36.503Z,40.10
2018-05-08T19:03:05.511Z,40.50
2018-05-08T19:05:33.847Z,40.40
2018-05-08T19:08:02.077Z,40.70
2018-05-08T19:10:30.316Z,40.70
2018-05-08T19:12:58.724Z,40.70
2018-05-08T19:15:32.608Z,40.70
2018-05-08T19:18:00.820Z,40.70
2018-05-08T19:20:29.088Z,40.70
2018-05-08T19:22:58.085Z,41.10
2018-05-08T19:25:26.340Z,41.00
2018-05-08T19:28:01.160Z,41.20
2018-05-08T19:30:30.171Z,41.10
2018-05-08T19:32:58.547Z,41.10
2018-05-08T19:35:33.204Z,41.10
2018-05-08T19:38:19.014Z,41.10
2018-05-08T19:40:47.275Z,41.20
2018-05-08T19:43:15.480Z,41.20
2018-05-08T19:45:43.695Z,41.30
2018-05-08T19:48:12.783Z,41.50
2018-05-08T19:50:41.791Z,41.60
2018-05-08T19:53:10.906Z,41.60
2018-05-08T19:55:39.195Z,41.60
2018-05-08T19:58:07.511Z,41.50
2018-05-08T20:00:35.845Z,41.30
2018-05-08T20:03:04.097Z,41.30
2018-05-08T20:05:32.356Z,41.30
2018-05-08T20:08:01.464Z,41.60
2018-05-08T20:10:30.538Z,41.70
2018-05-08T20:12:58.735Z,41.60
2018-05-08T20:15:26.977Z,41.80
2018-05-08T20:17:55.225Z,41.90
2018-05-08T20:20:23.474Z,42.00
2018-05-08T20:22:51.683Z,42.90
2018-05-08T20:25:19.924Z,42.20
2018-05-08T20:27:48.350Z,42.40
2018-05-08T20:30:16.609Z,42.60
2018-05-08T20:32:44.841Z,42.60
2018-05-08T20:35:13.132Z,42.80
2018-05-08T20:37:41.382Z,42.90
2018-05-08T20:40:10.374Z,43.50
2018-05-08T20:42:39.382Z,43.40
2018-05-08T20:45:08.417Z,43.40
2018-05-08T20:47:36.660Z,43.40
2018-05-08T20:50:04.888Z,43.50
2018-05-08T20:52:33.140Z,43.70
2018-05-08T20:55:01.502Z,43.70
2018-05-08T20:57:29.767Z,43.80
2018-05-08T20:59:58.768Z,43.80
2018-05-08T21:02:26.980Z,43.80
2018-05-08T21:04:55.249Z,43.90
2018-05-08T21:07:23.459Z,44.20
2018-05-08T21:09:51.759Z,44.50
2018-05-08T21:12:19.986Z,45.30
2018-05-08T21:14:48.260Z,44.90
2018-05-08T21:17:16.472Z,45.10
2018-05-08T21:19:45.487Z,44.90
2018-05-08T21:22:14.493Z,44.70
2018-05-08T21:24:42.768Z,44.70
2018-05-08T21:27:11.083Z,44.80
2018-05-08T21:29:44.892Z,44.90
2018-05-08T21:32:13.138Z,44.80
2018-05-08T21:34:41.358Z,44.90
2018-05-08T21:37:09.575Z,45.10
2018-05-08T21:39:37.808Z,45.00
2018-05-08T21:42:06.042Z,44.90
2018-05-08T21:44:34.292Z,44.90
2018-05-08T21:47:02.553Z,45.30
2018-05-08T21:49:31.565Z,46.00
2018-05-08T21:51:59.832Z,45.70
2018-05-08T21:54:28.035Z,45.90
2018-05-08T21:56:56.236Z,46.10
2018-05-08T21:59:24.527Z,46.50
2018-05-08T22:01:52.737Z,46.20
2018-05-08T22:04:20.974Z,46.30
2018-05-08T22:06:49.241Z,46.00
2018-05-08T22:09:17.457Z,45.70
2018-05-08T22:11:46.479Z,45.60
2018-05-08T22:14:14.692Z,45.60
2018-05-08T22:16:42.972Z,45.50
2018-05-08T22:19:12.104Z,45.40
2018-05-08T22:21:41.139Z,45.50
2018-05-08T22:24:09.413Z,45.50
2018-05-08T22:26:37.684Z,45.40
2018-05-08T22:29:05.960Z,45.30
2018-05-08T22:31:34.237Z,45.20
2018-05-08T22:34:02.536Z,45.20
2018-05-08T22:36:30.782Z,45.30
2018-05-08T22:38:59.053Z,45.40
2018-05-08T22:41:28.183Z,45.50
2018-05-08T22:43:56.408Z,45.50
2018-05-08T22:46:25.395Z,45.50
2018-05-08T22:48:53.762Z,45.40
2018-05-08T22:51:22.714Z,45.50
2018-05-08T22:53:50.941Z,45.50
2018-05-08T22:56:19.973Z,45.60
2018-05-08T22:58:48.516Z,45.50
2018-05-08T23:01:16.758Z,45.80
2018-05-08T23:03:45.030Z,45.90
2018-05-08T23:06:13.259Z,45.90
2018-05-08T23:08:41.505Z,45.90
2018-05-08T23:11:09.795Z,46.10
2018-05-08T23:13:38.035Z,46.10
2018-05-08T23:16:06.392Z,46.00
2018-05-08T23:18:34.623Z,46.00
2018-05-08T23:21:03.607Z,46.20
2018-05-08T23:23:31.848Z,46.20
2018-05-08T23:26:00.202Z,46.30
2018-05-08T23:28:28.472Z,46.50
2018-05-08T23:30:56.684Z,46.50
2018-05-08T23:33:24.917Z,46.70
2018-05-08T23:35:53.932Z,47.00
2018-05-08T23:38:22.170Z,46.90
2018-05-08T23:40:50.491Z,47.10
2018-05-08T23:43:18.747Z,47.20
2018-05-08T23:45:47.746Z,47.50
2018-05-08T23:48:15.971Z,47.50
2018-05-08T23:50:44.412Z,47.70
2018-05-08T23:53:12.633Z,47.80
2018-05-08T23:55:40.961Z,47.80
2018-05-08T23:58:13.093Z,48.00
